Tiempo atmosférico en la estación meteorológica de Jaén, Jaén (582 m.)



Fecha
DESCASC
Temp. máxima en grados centígrados (hora)
DESCASC
Temp. mínima en grados centígrados (hora)
DESCASC
Temp. media en grados centígrados
DESCASC
Racha de viento máxima en m/sg (hora)
DESCASC
Velocidad máxima media en intervalos de 10 minutos(hora)
DESCASC
Precipitaciones diarias en mm
DESCASC
Precipitaciones de 00:00 a 06:00 en mm
DESCASC
Precipitaciones de 06:00 a 12:00 en mm
DESCASC
Precipitaciones de 12:00 a 18:00 en mm
DESCASC
Precipitaciones de 18:00 a 24:00 en mm
DESCASC
05-04-2020 21.3 (16:40) 9.8 (07:20) 15.5 9.72 (18:30) 4.72 (18:40) 0 0 0 0 0
04-04-2020 19.9 (17:50) 10.9 (06:30) 15.4 13.89 (09:50) 7.5 (08:10) 0 0 0 0 0
03-04-2020 18.4 (15:40) 6.7 (08:10) 12.5 6.39 (23:50) 4.44 (23:50) 0 0 0 0 0
02-04-2020 10.9 (16:50) 6.7 (00:00) 8.8 6.94 (17:00) 4.72 (12:10) 4.8 0 4 0.8 0
01-04-2020 14.5 (16:40) 9 (00:00) 11.8 10 (17:50) 5.28 (17:50) 5.2 3.6 1 0.6 0
31-03-2020 16 (17:20) 8.5 (00:00) 12.3 13.89 (18:30) 6.11 (15:40) 14 12.4 0.8 0.2 0.6
30-03-2020 15.7 (15:50) 8.8 (00:00) 12.3 8.33 (21:40) 5 (21:40) 7.2 0 0 0.4 6.8
29-03-2020 17.7 (16:10) 8 (00:00) 12.9 6.39 (18:40) 3.61 (00:20) 0 0 0 0 0
28-03-2020 17 (15:20) 4.6 (00:00) 10.8 5.28 (14:10) 3.33 (23:40) 0 0 0 0 0
27-03-2020 17.2 (14:30) 8.3 (00:00) 12.8 11.39 (17:40) 6.39 (17:00) 0 0 0 0 0
26-03-2020 18.5 (17:00) 10.8 (00:00) 14.7 14.17 (03:20) 7.78 (02:50) 0 0 0 0 0
25-03-2020 17.8 (16:30) 9.6 (00:00) 13.7 12.5 (23:50) 7.78 (23:40) 0 0 0 0 0
24-03-2020 15.7 (13:20) 9.8 (00:00) 12.8 16.39 (09:30) 10.56 (09:40) 0 0 0 0 0
23-03-2020 16.6 (15:30) 6 (00:00) 11.3 11.11 (19:40) 6.39 (19:10) 8.2 0 0 4.6 3.6
22-03-2020 12.3 (15:00) 5.9 (03:20) 9.1 6.39 (13:40) 3.89 (15:10) 10.6 0 0 10.6 0
21-03-2020 13.3 (17:00) 7.2 (00:00) 10.3 14.17 (02:30) 9.17 (01:50) 7 2.8 3.2 1 0
20-03-2020 18.6 (16:50) 10.4 (00:00) 14.5 12.78 (01:00) 8.06 (23:10) 0 0 0 0 0
19-03-2020 20.3 (15:10) 11.4 (00:00) 15.8 14.17 (02:20) 8.61 (00:10) 0 0 0 0 0
18-03-2020 19.8 (16:30) 12.4 (00:00) 16.1 21.94 (09:20) 12.78 (09:20) 0 0 0 0 0
17-03-2020 17.9 (15:00) 4.8 (00:00) 11.3 13.61 (18:10) 9.17 (18:10) 0.2 0 0 0 0.2
16-03-2020 16 (00:00) 4.3 (00:00) 10.2 13.61 (05:40) 8.06 (05:30) 4.4 3.6 0.8 0 0
15-03-2020 19.8 (13:30) 11.4 (00:00) 15.6 7.22 (17:00) 4.17 (17:00) 0 0 0 0 0
14-03-2020 21.7 (16:10) 10.4 (00:00) 16.1 4.72 (14:40) 2.78 (19:40) 0 0 0 0 0
13-03-2020 22.3 (16:00) 11.6 (07:40) 16.9 9.17 (16:30) 5.56 (16:30) 0 0 0 0 0
12-03-2020 26.9 (15:30) 16.4 (00:00) 21.6 6.94 (20:00) 5 (08:00) 0 0 0 0 0
11-03-2020 28.8 (15:50) 14.2 (00:00) 21.5 5.83 (23:50) 4.17 (18:30) 0 0 0 0 0

Gráficas

Temp. máximas Temp. mínimas Temp. medias Precipitaciones Rachas de viento máximas Velocidades máximas media en intervalos de 10 minutos

Datos horarios

Fecha y hora oficial Temperatura (ºC) Velocidad del viento (km/h) Dirección del viento Racha (km/h) Dirección de racha Precipitación (mm) Presión (hPa) Tendencia (hPa) Humedad (%)
2020-04-09 23:00:00 11.8 3 Este 8 Nordeste 1 954.2 1.7 98
2020-04-09 22:00:00 12.7 3 Oeste 13 Oeste 1.6 953.6 1.6 98
2020-04-09 21:00:00 13 8 Noroeste 18 Noroeste 1.8 952.8 1.2 96
2020-04-09 20:00:00 13.6 11 Oeste 21 Oeste 1.2 952.5 1 93
2020-04-09 19:00:00 14.3 11 Oeste 18 Oeste 4 952 0.5 92
2020-04-09 18:00:00 15.7 11 Oeste 25 Oeste 0.4 951.6 -0.3 85
2020-04-09 17:00:00 17 8 Noroeste 21 Noroeste 0.2 951.5 -0.5 77
2020-04-09 16:00:00 18.9 8 Noroeste 15 Noroeste 0 951.5 -0.8 63
2020-04-09 15:00:00 18.4 9 Oeste 21 Oeste 0 951.9 -0.3 69
2020-04-09 14:00:00 19.6 8 Noroeste 17 Norte 0 952 -0.2 52
2020-04-09 13:00:00 19.5 6 Noroeste 14 Este 0 952.3 0.6 42
2020-04-09 12:00:00 18.3 9 Este 17 Sudeste 0 952.2 0.4 44
2020-04-09 11:00:00 17.2 11 Este 23 Sudeste 0 952.2 0.7 50
2020-04-09 10:00:00 16.3 12 Sudeste 25 Este 0 951.7 0.1 53
2020-04-09 09:00:00 15 8 Sudeste 19 Sudeste 0 951.8 0.4 59
2020-04-09 08:00:00 14.5 8 Sudeste 13 Sudeste 0 951.5 0.1 61
2020-04-09 07:00:00 14.4 0 Calma 7 Sudoeste 0 951.6 -0.1 75
2020-04-09 06:00:00 15.2 2 Sudoeste 11 Noroeste 0 951.4 -1.1 69
2020-04-09 05:00:00 15.9 7 Sudeste 17 Sudeste 0 951.4 -1.4 61
2020-04-09 04:00:00 16.3 9 Sudeste 21 Sudeste 0 951.7 -1.4 61
2020-04-09 03:00:00 16.8 6 Sudeste 21 Sudeste 0 952.5 -0.8 60
2020-04-09 02:00:00 17.2 4 Sudeste 23 Sudeste 0 952.8 -0.3 59
2020-04-09 01:00:00 16.8 3 Oeste 10 Sur 0 953.1 0.7 75
2020-04-09 00:00:00 17.2 8 Sur 9 Sudeste 0 953.3 1.4 73
2020-04-08 23:00:00 17.6 4 Sur 20 Oeste 0 953.1 1.4 71
2020-04-08 22:00:00 18 12 Oeste 21 Oeste 0 952.4 0.8 67
2020-04-08 21:00:00 19 15 Oeste 23 Oeste 0 951.9 0.4 65
2020-04-08 20:00:00 21.2 9 Oeste 16 Noroeste 0 951.7 -0.2 55
2020-04-08 19:00:00 21.9 8 Norte 13 Norte 0 951.6 -0.8 50
2020-04-08 18:00:00 22.7 5 Norte 19 Norte 0 951.5 -1.5 47
2020-04-08 17:00:00 23.4 8 Norte 24 Norte 0 951.9 -1.8 45
2020-04-08 16:00:00 23.3 6 Noroeste 23 Norte 0 952.4 -2 46
2020-04-08 15:00:00 22.6 5 Este 15 Sudeste 0 953 -1.7 52
2020-04-08 14:00:00 21.8 5 Nordeste 15 Nordeste 0 953.7 -1.3 54
2020-04-08 13:00:00 20.3 6 Nordeste 19 Este 0 954.4 -0.5 57
2020-04-08 12:00:00 18.5 9 Este 18 Sudeste 0 954.7 -0.4 62
2020-04-08 11:00:00 16.7 13 Este 33 Este 0 955 0.1 67
2020-04-08 10:00:00 15.7 11 Sudeste 25 Sudeste 0 954.9 0 71
2020-04-08 09:00:00 14.3 10 Sudeste 29 Este 0 955.1 0.2 75
2020-04-08 08:00:00 13.4 9 Sudeste 16 Sudeste 0 954.9 -0.3 79
2020-04-08 07:00:00 13.9 7 Sudeste 17 Sudeste 0 954.9 -0.6 76
2020-04-08 06:00:00 14.6 2 Sudeste 14 Sur 0 954.9 -0.9 74
2020-04-08 05:00:00 15.4 6 Sur 12 Sudoeste 0 955.2 -0.6 70
2020-04-08 04:00:00 16.2 9 Sudeste 15 Sudeste 0 955.5 -0.5 68
2020-04-08 03:00:00 16.7 5 Sur 23 Sur 0 955.8 0 69
2020-04-08 02:00:00 16.7 12 Sur 17 Sudeste 0 955.8 0.1 70
2020-04-08 01:00:00 16.6 10 Sur 13 Sur 0 956 0.7 72
2020-04-08 00:00:00 16.3 6 Sur 11 Sudoeste 0 955.8 1.1 72
2020-04-07 23:00:00 17.1 8 Sudoeste 11 Sudoeste 0 955.7 1.3 69
2020-04-07 22:00:00 17.6 7 Oeste 13 Oeste 0 955.3 1.2 68
2020-04-07 21:00:00 18.3 11 Oeste 15 Noroeste 0 954.7 0.7 67
2020-04-07 20:00:00 20.2 10 Noroeste 20 Oeste 0 954.4 0.3 58
2020-04-07 19:00:00 21.1 10 Noroeste 26 Noroeste 0 954.1 -0.6 55
2020-04-07 18:00:00 21.6 14 Noroeste 26 Noroeste 0 954 -1.2 53
2020-04-07 17:00:00 21.8 9 Oeste 23 Noroeste 0 954.1 -1.7 54
2020-04-07 16:00:00 21.1 8 Noroeste 22 Norte 0 954.7 -1.4 56
2020-04-07 15:00:00 20.9 8 Oeste 17 Noroeste 0 955.2 -1.2 59
2020-04-07 14:00:00 19.8 6 Noroeste 13 Noroeste 0 955.8 -0.4 62
2020-04-07 13:00:00 18.1 5 Noroeste 12 Noroeste 0 956.1 0.1 70
2020-04-07 12:00:00 17.5 4 Nordeste 10 Este 0 956.4 0.5 71
2020-04-07 11:00:00 16.9 5 Este 11 Este 0 956.2 0.8 72
2020-04-07 10:00:00 15.2 3 Norte 7 Norte 0 956 1 84
2020-04-07 09:00:00 13.3 5 Norte 6 Norte 0 955.9 1 90
2020-04-07 08:00:00 12.5 2 Sudoeste 14 Oeste 0 955.4 0.6 89
2020-04-07 07:00:00 13.2 4 Noroeste 8 Sur 0 955 -0.1 87
2020-04-07 06:00:00 14.1 5 Oeste 15 Sur 0 954.9 -0.6 84
2020-04-07 05:00:00 14.6 9 Sudeste 15 Sudeste 0 954.8 -0.7 83
2020-04-07 04:00:00 14.4 6 Sur 10 Sur 0 955.1 -0.4 85
2020-04-07 03:00:00 14.4 3 Sudeste 9 Oeste 0 955.5 -0.2 86
2020-04-07 02:00:00 14.8 6 Sur 13 Sur 0 955.5 -0.2 84
2020-04-07 01:00:00 14.7 9 Sur 15 Sur 0 955.5 0.3 87
2020-04-07 00:00:00 14.3 3 Sudeste 9 Sur 0 955.7 1.4 88
2020-04-06 23:00:00 14.9 3 Noroeste 12 Oeste 0 955.7 1.8 86
2020-04-06 22:00:00 15.2 8 Oeste 19 Oeste 0 955.2 1.5 84
2020-04-06 21:00:00 16.3 6 Noroeste 21 Oeste 0 954.3 0.5 78
2020-04-06 20:00:00 18 9 Noroeste 19 Noroeste 0 953.9 0 69
2020-04-06 19:00:00 18.9 10 Noroeste 23 Noroeste 0 953.7 -0.4 63
2020-04-06 18:00:00 19.8 13 Noroeste 30 Noroeste 0 953.8 -0.6 56
2020-04-06 17:00:00 20.3 14 Noroeste 27 Noroeste 0 953.9 -0.5 53
2020-04-06 16:00:00 19.9 12 Noroeste 23 Norte 0 954.1 -0.6 53
2020-04-06 15:00:00 18.7 10 Norte 24 Noroeste 0 954.4 -0.2 58
2020-04-06 14:00:00 18.7 11 Noroeste 19 Noroeste 0 954.4 0.1 57
2020-04-06 13:00:00 17.4 12 Norte 19 Noroeste 0 954.7 1.1 60
2020-04-06 12:00:00 17.2 8 Noroeste 17 Noroeste 0 954.6 1.6 58
2020-04-06 11:00:00 16 10 Noroeste 17 Noroeste 0 954.3 1.8 62
2020-04-06 10:00:00 15.2 2 Nordeste 6 Oeste 0 953.6 1.3 65
2020-04-06 09:00:00 12.5 4 Oeste 8 Oeste 0 953 1.1 76
2020-04-06 08:00:00 11.6 5 Sudoeste 10 Oeste 0 952.5 0.6 79
2020-04-06 07:00:00 11.2 2 Sur 6 Sudoeste 0 952.3 0.1 79
2020-04-06 06:00:00 11.1 3 Sudoeste 7 Sur 0 951.9 -0.5 81
2020-04-06 05:00:00 11.4 3 Sur 8 Sur 0 951.9 -0.2 79
2020-04-06 04:00:00 11.9 2 Sur 9 Oeste 0 952.2 0.6 76
2020-04-06 03:00:00 12.7 8 Sudoeste 13 Oeste 0 952.4 0.5 73
2020-04-06 02:00:00 14.5 9 Sudoeste 15 Oeste 0 952.1 0.5 67
2020-04-06 01:00:00 15.1 7 Sudoeste 24 Sudoeste 0 951.6 0.9 66
2020-04-06 00:00:00 15.1 12 Oeste 18 Oeste 0 951.9 1.7 65
2020-04-05 23:00:00 15.3 11 Oeste 17 Oeste 0 951.6 2.1 65
2020-04-05 22:00:00 16.8 10 Sudoeste 21 Sudoeste 0 950.7 1.3 58
2020-04-05 21:00:00 17.7 6 Sudoeste 23 Noroeste 0 950.2 1.2 58
2020-04-05 20:00:00 19.6 11 Noroeste 24 Oeste 0 949.5 0.4 50
2020-04-05 19:00:00 20.2 9 Noroeste 35 Noroeste 0 949.4 -0.2 50
2020-04-05 18:00:00 20.6 5 Norte 16 Noroeste 0 949 -1 47
2020-04-05 17:00:00 21.1 6 Nordeste 19 Norte 0 949.1 -1.4 47
2020-04-05 16:00:00 20.7 5 Norte 17 Noroeste 0 949.6 -1.5 44
2020-04-05 15:00:00 20.4 8 Noroeste 17 Norte 0 950 -1.3 43
2020-04-05 14:00:00 19.8 7 Noroeste 15 Norte 0 950.5 -0.5 46
2020-04-05 13:00:00 18.6 6 Norte 13 Noroeste 0 951.1 0.7 48
2020-04-05 12:00:00 16.6 3 Nordeste 9 Este 0 951.3 1 55
2020-04-05 11:00:00 14.8 4 Norte 10 Norte 0 951 1.3 63
2020-04-05 10:00:00 12.6 3 Nordeste 6 Noroeste 0 950.4 1.2 66
2020-04-05 09:00:00 11.2 3 Este 8 Sudoeste 0 950.3 1.2 71
2020-04-05 08:00:00 10.5 4 Sur 14 Sudeste 0 949.7 1.1 67
2020-04-05 07:00:00 10.2 2 Sudoeste 9 Sudoeste 0 949.2 0.6 72
2020-04-05 06:00:00 11.4 5 Oeste 22 Sudeste 0 949.1 0 67
2020-04-05 05:00:00 11.4 8 Sudeste 14 Sur 0 948.6 -0.8 68
2020-04-05 04:00:00 12.3 8 Sudeste 21 Este 0 948.6 -1 65
2020-04-05 03:00:00 13.1 12 Sudeste 21 Sudeste 0 949.1 -0.3 61
2020-04-05 02:00:00 13.1 6 Sudeste 19 Sudeste 0 949.4 0.3 62
2020-04-05 01:00:00 13.3 9 Sudeste 17 Sudeste 0 949.6 1 62
2020-04-05 00:00:00 14 5 Este 30 Sur 0 949.4 1.9 59
2020-04-04 23:00:00 14.9 12 Sur 26 Sudeste 0 949.1 2 56
2020-04-04 22:00:00 15.4 5 Oeste 22 Sur 0 948.6 1.5 53
2020-04-04 21:00:00 15.6 13 Sudeste 30 Sur 0 947.5 0.6 49
2020-04-04 20:00:00 15.4 22 Sur 34 Sur 0 947.1 0.3 50
2020-04-04 19:00:00 15.9 18 Sudeste 38 Sudeste 0 947.1 0 46
2020-04-04 18:00:00 19.4 11 Sudoeste 24 Oeste 0 946.9 -0.3 30
2020-04-04 17:00:00 19.2 9 Este 23 Sudoeste 0 946.8 -0.3 36
2020-04-04 16:00:00 18.9 7 Sudeste 22 Sudeste 0 947.1 -0.1 38
2020-04-04 15:00:00 19.2 9 Sudeste 34 Sudeste 0 947.2 0.1 36
2020-04-04 14:00:00 18.8 15 Sudeste 34 Este 0 947.1 0.2 37
2020-04-04 13:00:00 17.7 21 Sudeste 38 Sudeste 0 947.2 0.2 36
2020-04-04 12:00:00 16.4 22 Sudeste 39 Este 0 947.1 0.3 39
2020-04-04 11:00:00 14.5 24 Sudeste 46 Este 0 946.9 0.4 43
2020-04-04 10:00:00 13.1 24 Sudeste 50 Sudeste 0 947 0.6 48
2020-04-04 09:00:00 11.7 23 Sudeste 46 Sudeste 0 946.8 0.2 53
2020-04-04 08:00:00 11.1 24 Sur 47 Sur 0 946.5 -0.4 54
2020-04-04 07:00:00 11 21 Sur 37 Sur 0 946.4 -1.1 56
2020-04-04 06:00:00 11.3 17 Sudeste 35 Sur 0 946.6 -1.3 57
2020-04-04 05:00:00 11.6 15 Sudeste 39 Sudeste 0 946.9 -1.3 61
2020-04-04 04:00:00 12.1 15 Sudeste 38 Sudeste 0 947.5 -0.9 60
2020-04-04 03:00:00 12.5 23 Sudeste 36 Sudeste 0 947.9 -0.3 60
2020-04-04 02:00:00 12.7 18 Sur 30 Sur 0 948.2 0 62
2020-04-04 01:00:00 12.9 11 Sur 26 Sudeste 0 948.4 0.7 64
2020-04-04 00:00:00 13.2 16 Sur 23 Sur 0 948.2 0.9 59
2020-04-03 23:00:00 11.6 7 Sur 10 Sur 0 948.2 1 62
2020-04-03 22:00:00 11.8 4 Sudoeste 10 Sudoeste 0 947.7 0.5 64
2020-04-03 21:00:00 13.3 7 Sudoeste 9 Sudoeste 0 947.3 0 62
2020-04-03 20:00:00 16.1 3 Sudoeste 12 Norte 0 947.2 -0.2 55
2020-04-03 19:00:00 17.2 8 Norte 16 Norte 0 947.2 -0.6 47
2020-04-03 18:00:00 17.8 8 Norte 17 Norte 0 947.3 -1.2 45
2020-04-03 17:00:00 18.2 9 Norte 17 Norte 0 947.4 -1.7 42
2020-04-03 16:00:00 18.2 8 Nordeste 16 Nordeste 0 947.8 -1.8 47
2020-04-03 15:00:00 17.6 5 Nordeste 17 Norte 0 948.5 -1.2 50
2020-04-03 14:00:00 16.4 5 Nordeste 16 Norte 0 949.1 -0.3 56
2020-04-03 13:00:00 15.5 6 Nordeste 14 Nordeste 0 949.6 0.5 61
2020-04-03 12:00:00 14.1 6 Este 14 Este 0 949.7 0.9 67
2020-04-03 11:00:00 12.3 6 Este 14 Sudeste 0 949.4 0.9 76
2020-04-03 10:00:00 10.7 3 Nordeste 9 Norte 0 949.1 0.9 84
2020-04-03 09:00:00 7.8 2 Norte 5 Nordeste 0 948.8 0.8 93
2020-04-03 08:00:00 6.8 3 Sur 5 Sudoeste 0 948.5 1 92
2020-04-03 07:00:00 7.7 3 Sudoeste 7 Sudoeste 0 948.2 0.5 91
2020-04-03 06:00:00 7.9 5 Oeste 8 Oeste 0 948 0.4 91
2020-04-03 05:00:00 8.5 3 Sur 6 Sur 0 947.5 -0.2 86
2020-04-03 04:00:00 8.5 4 Oeste 7 Oeste 0 947.7 -0.2 87
2020-04-03 03:00:00 8.8 3 Nordeste 13 Oeste 0 947.6 -0.2 83
2020-04-03 02:00:00 9.1 9 Oeste 12 Oeste 0 947.7 -0.1 83
2020-04-03 01:00:00 9.3 3 Sudoeste 12 Oeste 0 947.9 1 84
2020-04-03 00:00:00 10.1 10 Oeste 18 Noroeste 0 947.8 1.9 78
2020-04-02 23:00:00 9.5 2 Sudeste 14 Oeste 0 947.8 2.2 79
2020-04-02 22:00:00 9.3 9 Oeste 14 Oeste 0 946.9 1.9 75
2020-04-02 21:00:00 9.6 6 Sudoeste 10 Sudoeste 0 945.9 1.6 78
2020-04-02 20:00:00 10.4 3 Oeste 25 Oeste 0 945.6 1.8 79
2020-04-02 19:00:00 10 16 Oeste 23 Noroeste 0 945 0.9 76
2020-04-02 18:00:00 10.6 13 Noroeste 25 Noroeste 0 944.3 0 72
2020-04-02 17:00:00 10.6 14 Noroeste 25 Noroeste 0 943.8 -0.4 72
2020-04-02 16:00:00 9.6 10 Noroeste 18 Noroeste 0 944.1 -0.3 80
2020-04-02 15:00:00 9.7 9 Norte 17 Norte 0 944.3 -0.3 74
2020-04-02 14:00:00 9.1 7 Noroeste 11 Norte 0 944.2 -0.4 76
2020-04-02 13:00:00 8.2 3 Sudeste 23 Sudeste 0.8 944.4 0.5 78
2020-04-02 12:00:00 6.7 14 Sudeste 22 Sudeste 1.2 944.6 1.1 88
2020-04-02 11:00:00 7 13 Sudoeste 23 Sudoeste 0.6 944.6 1.3 82
2020-04-02 10:00:00 7 10 Sudoeste 22 Oeste 0.2 943.9 0.8 86
2020-04-02 09:00:00 7.1 5 Oeste 7 Oeste 1.4 943.5 0.4 95
2020-04-02 08:00:00 7.3 4 Oeste 8 Sudoeste 0.6 943.3 -0.3 94
2020-04-02 07:00:00 7.5 3 Sudoeste 7 Sudoeste 0 943.1 -1.2 92
2020-04-02 06:00:00 7.8 2 Sur 5 Sudeste 0 943.1 -2 87
2020-04-02 05:00:00 7.8 3 Sudoeste 10 Sudeste 0 943.6 -1.9 79
2020-04-02 04:00:00 7.8 3 Sur 13 Sur 0 944.3 -1.6 79
2020-04-02 03:00:00 7.5 10 Sur 14 Sur 0 945.1 -1.3 78
2020-04-02 02:00:00 8 2 Este 14 Sur 0 945.5 -0.7 73
2020-04-02 01:00:00 9.3 8 Sudoeste 19 Sur 0 945.9 -0.2 65
2020-04-02 00:00:00 9.1 2 Oeste 14 Sudeste 0 946.4 1.2 77
2020-04-01 23:00:00 9.4 10 Sur 25 Oeste 0 946.2 1.3 72
2020-04-01 22:00:00 9.6 12 Oeste 27 Oeste 0 946.1 1.7 70
2020-04-01 21:00:00 10 15 Oeste 31 Oeste 0 945.2 0.9 71
2020-04-01 20:00:00 12.1 15 Noroeste 31 Oeste 0 944.9 0.6 65
2020-04-01 19:00:00 13.5 15 Noroeste 32 Noroeste 0 944.4 -0.1 55
2020-04-01 18:00:00 13.5 16 Noroeste 36 Noroeste 0 944.3 -0.6 55
2020-04-01 17:00:00 14 12 Noroeste 32 Oeste 0 944.3 -1.3 60
2020-04-01 16:00:00 13.7 12 Noroeste 25 Noroeste 0 944.5 -1.4 64
2020-04-01 15:00:00 13.9 12 Noroeste 21 Noroeste 0 944.9 -1.1 67
2020-04-01 14:00:00 10.7 10 Noroeste 30 Noroeste 0.6 945.6 -0.2 89
2020-04-01 13:00:00 11.3 4 Este 14 Norte 0 945.9 0.4 88
2020-04-01 12:00:00 10.6 7 Noroeste 23 Noroeste 0.4 946 1.1 89
2020-04-01 11:00:00 9.6 11 Noroeste 21 Norte 0.4 945.8 1.6 93
2020-04-01 10:00:00 9.4 7 Norte 12 Norte 0.2 945.5 1.6 99
2020-04-01 09:00:00 9.4 4 Nordeste 7 Nordeste 0 944.9 1.1 98
2020-04-01 08:00:00 9.5 3 Este 10 Este 0 944.2 0.4 97
2020-04-01 07:00:00 9.4 3 Sudeste 10 Sur 0 943.9 0.3 96
2020-04-01 06:00:00 9.6 3 Sudoeste 6 Nordeste 0 943.8 -0.1 97
2020-04-01 05:00:00 9.7 3 Este 10 Sudeste 0.4 943.8 0 95
2020-04-01 04:00:00 10 4 Sur 12 Sudoeste 0.4 943.6 0 96
2020-04-01 03:00:00 10 7 Sudeste 10 Sudeste 2.6 943.9 0.5 94
2020-04-01 02:00:00 10.6 4 Sudeste 13 Oeste 0.2 943.8 0.6 90
2020-04-01 01:00:00 11.5 7 Noroeste 14 Noroeste 0 943.6 1.4 79
2020-04-01 00:00:00 12.1 4 Noroeste 19 Sudoeste 0 943.4 2.4 74
2020-03-31 23:00:00 11.3 6 Oeste 28 Oeste 0.2 943.2 3 80
2020-03-31 22:00:00 13.2 10 Sur 48 Oeste 0.2 942.2 2.7 69
2020-03-31 21:00:00 13.5 9 Sudeste 44 Sudeste 0.2 941 1.9 68
2020-03-31 20:00:00 14.5 18 Sur 40 Sudeste 0 940.2 1.3 61
2020-03-31 19:00:00 15 17 Sur 50 Sur 0 939.5 0.8 57
2020-03-31 18:00:00 15.2 13 Sur 37 Sur 0 939.1 0 60
2020-03-31 17:00:00 15.7 17 Sur 36 Sudeste 0 938.9 -0.4 53
2020-03-31 16:00:00 15.7 10 Sur 45 Sur 0 938.7 -0.7 58
2020-03-31 15:00:00 14.6 12 Sudeste 26 Sudeste 0 939.1 -0.2 65
2020-03-31 14:00:00 15 4 Sur 27 Sur 0.2 939.3 0.2 60
2020-03-31 13:00:00 15 11 Oeste 29 Sudoeste 0 939.4 1 62
2020-03-31 12:00:00 12.1 3 Nordeste 8 Este 0.4 939.3 1.6 87
2020-03-31 11:00:00 12 7 Norte 28 Sur 0 939.1 2.5 82
2020-03-31 10:00:00 12.1 12 Sur 43 Sudeste 0.2 938.4 2.2 69
2020-03-31 09:00:00 11.3 18 Sur 42 Sur 0.2 937.7 1.1 71
2020-03-31 08:00:00 12.1 21 Sur 47 Sur 0 936.6 -2.1 63
2020-03-31 07:00:00 9.9 15 Sur 31 Sur 0 936.2 -2.3 77
2020-03-31 06:00:00 9 14 Sudeste 32 Este 1.2 936.6 -1.9 84
2020-03-31 05:00:00 8.6 3 Oeste 26 Sudeste 6 938.7 -0.7 97
2020-03-31 04:00:00 8.7 3 Sur 7 Oeste 1.6 938.5 -2.3 97
2020-03-31 03:00:00 8.8 5 Norte 11 Sur 0.6 938.5 -2.4 97
2020-03-31 02:00:00 8.5 3 Sur 14 Sudeste 2 939.4 -2.2 97
2020-03-31 01:00:00 8.8 4 Este 17 Sudeste 1 940.8 -0.7 98
2020-03-31 00:00:00 8.8 8 Sudeste 24 Sudeste 1.2 940.9 -0.5 98
2020-03-30 23:00:00 9.5 6 Este 22 Oeste 3 941.6 0.4 96
2020-03-30 22:00:00 9.3 15 Oeste 30 Noroeste 0.4 941.5 0.6 95
2020-03-30 21:00:00 10.5 5 Sudoeste 13 Oeste 0 941.4 0.3 91
2020-03-30 20:00:00 11.3 12 Sudoeste 22 Sur 2 941.2 -0.4 83
2020-03-30 19:00:00 13.8 6 Oeste 17 Noroeste 0.2 940.9 -1.3 75
2020-03-30 18:00:00 14.8 6 Noroeste 15 Norte 0 941.1 -2.1 67
2020-03-30 17:00:00 14.9 6 Noroeste 12 Norte 0 941.6 -2.6 68
2020-03-30 16:00:00 15.4 4 Norte 11 Noroeste 0 942.2 -2.7 63
2020-03-30 15:00:00 14.1 3 Norte 11 Norte 0.2 943.2 -2.3 75
2020-03-30 14:00:00 13.3 8 Noroeste 14 Noroeste 0 944.2 -1.6 81
2020-03-30 13:00:00 13.3 5 Noroeste 14 Norte 0.2 944.9 -1 79
2020-03-30 12:00:00 14.2 3 Este 9 Este 0 945.5 -0.5 67
2020-03-30 11:00:00 12.9 4 Nordeste 10 Sudeste 0 945.8 0.2 74
2020-03-30 10:00:00 11.6 4 Este 9 Este 0 945.9 0.3 77
2020-03-30 09:00:00 10.3 0 Calma 6 Sudoeste 0 946 0 81
2020-03-30 08:00:00 9.3 4 Sur 6 Sur 0 945.6 -0.8 83
2020-03-30 07:00:00 10.4 2 Oeste 7 Oeste 0 945.6 -1.5 78
2020-03-30 06:00:00 11.5 0 Calma 21 Sudoeste 0 946 -1.4 73
2020-03-30 05:00:00 12.2 8 Sudoeste 17 Sudoeste 0 946.4 -1.5 66
2020-03-30 04:00:00 12.2 5 Oeste 12 Sudoeste 0 947.1 -1.2 69
2020-03-30 03:00:00 12.6 5 Sudoeste 24 Sudoeste 0 947.4 -1.2 61
2020-03-30 02:00:00 12.9 7 Oeste 21 Oeste 0 947.9 -0.9 59
2020-03-30 01:00:00 12.9 3 Sudeste 15 Oeste 0 948.3 -0.4 55
2020-03-30 00:00:00 13.8 8 Oeste 15 Oeste 0 948.6 0.2 49
2020-03-29 23:00:00 13.9 10 Oeste 16 Oeste 0 948.8 0.3 51
2020-03-29 22:00:00 14.4 10 Oeste 17 Oeste 0 948.7 0.3 49
2020-03-29 21:00:00 14.4 10 Oeste 13 Oeste 0 948.4 -0.1 49
2020-03-29 20:00:00 15.6 6 Oeste 15 Noroeste 0 948.5 -0.3 46
2020-03-29 19:00:00 17.4 9 Oeste 23 Noroeste 0 948.4 -1.1 39
2020-03-29 18:00:00 17.2 5 Noroeste 16 Norte 0 948.5 -1.8 39
2020-03-29 17:00:00 17.4 7 Noroeste 19 Norte 0 948.8 -2.1 41
2020-03-29 16:00:00 17.5 6 Norte 13 Noroeste 0 949.5 -1.8 43
2020-03-29 15:00:00 15.5 8 Noroeste 13 Norte 0 950.3 -1.4 51
2020-03-29 14:00:00 15.7 5 Nordeste 17 Norte 0 950.9 -0.9 55
2020-03-29 13:00:00 15.9 5 Noroeste 14 Norte 0 951.3 -0.4 53
2020-03-29 12:00:00 14.5 5 Nordeste 12 Nordeste 0 951.7 0.2 57
2020-03-29 11:00:00 12.8 4 Nordeste 10 Este 0 951.8 0.6 60
2020-03-29 10:00:00 10.6 4 Norte 7 Norte 0 951.7 0.9 74
2020-03-29 09:00:00 8.8 0 Calma 6 Sudeste 0 951.5 0.5 80
2020-03-29 08:00:00 8.1 2 Noroeste 8 Sudoeste 0 951.2 0.2 80
2020-03-29 07:00:00 8.9 4 Sudoeste 8 Oeste 0 950.8 -0.5 72
2020-03-29 06:00:00 9.4 0 Calma 7 Sur 0 951 -0.7 71
2020-03-29 05:00:00 9.2 4 Sur 6 Sudoeste 0 951 -0.8 63
2020-03-29 03:00:00 9.6 9 Oeste 13 Oeste 0 951.7 0.9 61
2020-03-29 01:00:00 10.5 2 Oeste 18 Oeste 0 951.8 1.4 71
2020-03-29 00:00:00 11 11 Oeste 17 Oeste 0 951.3 1.3 52
2020-03-28 23:00:00 9.6 5 Sudoeste 7 Sudoeste 0 950.8 1.4 58
2020-03-28 22:00:00 9.8 3 Sudoeste 5 Sudoeste 0 950.4 1.5 57
2020-03-28 21:00:00 10.4 5 Sudoeste 7 Sudoeste 0 950 1.5 57
2020-03-28 20:00:00 11.5 6 Sudoeste 10 Sudoeste 0 949.4 1.2 53
2020-03-28 19:00:00 14.8 4 Noroeste 14 Norte 0 948.9 0.6 45
2020-03-28 18:00:00 15.9 6 Norte 19 Norte 0 948.5 -0.1 38
2020-03-28 17:00:00 15.7 4 Sur 16 Norte 0 948.2 -0.7 44
2020-03-28 16:00:00 16.2 3 Sur 16 Nordeste 0 948.3 -0.9 42
2020-03-28 15:00:00 15.8 5 Noroeste 19 Norte 0 948.6 -0.7 43
2020-03-28 14:00:00 16.3 4 Noroeste 13 Noroeste 0 948.9 -0.2 43
2020-03-28 13:00:00 14.8 6 Noroeste 17 Noroeste 0 949.2 0.5 51
2020-03-28 12:00:00 12.7 7 Noroeste 14 Norte 0 949.3 1.1 64
2020-03-28 11:00:00 13.7 6 Este 15 Sudeste 0 949.1 1.5 61
2020-03-28 10:00:00 11 4 Nordeste 10 Norte 0 948.7 1.6 72
2020-03-28 09:00:00 8.3 3 Nordeste 7 Norte 0 948.2 1.4 84
2020-03-28 08:00:00 6.4 3 Norte 7 Norte 0 947.6 1.3 90
2020-03-28 07:00:00 5.1 0 Calma 6 Sur 0 947.1 1 94
2020-03-28 06:00:00 4.6 4 Sur 6 Sur 0 946.8 0.7 93
2020-03-28 05:00:00 5 3 Oeste 9 Oeste 0 946.3 0 91
2020-03-28 04:00:00 5.7 2 Sudoeste 5 Oeste 0 946.1 0 87
2020-03-28 03:00:00 6.4 3 Sudoeste 8 Oeste 0 946.1 0 86
2020-03-28 02:00:00 7.3 4 Noroeste 10 Norte 0 946.3 0.6 82
2020-03-28 01:00:00 8 2 Noroeste 12 Noroeste 0 946.1 1 77
2020-03-28 00:00:00 8.3 7 Norte 12 Norte 0 946.1 1.8 76
2020-03-27 23:00:00 9.3 4 Nordeste 15 Norte 0 945.7 2.3 71
2020-03-27 22:00:00 10.1 4 Noroeste 9 Noroeste 0 945.1 2.6 68
2020-03-27 21:00:00 10.7 3 Noroeste 10 Noroeste 0 944.3 2.5 64
2020-03-27 20:00:00 11.9 3 Noroeste 24 Noroeste 0 943.4 2.1 60
2020-03-27 19:00:00 13.2 14 Oeste 27 Noroeste 0 942.5 1.4 48
2020-03-27 18:00:00 14.2 15 Oeste 41 Noroeste 0 941.8 0.7 49
2020-03-27 17:00:00 14.4 23 Oeste 40 Oeste 0 941.3 -0.1 45
2020-03-27 16:00:00 15.3 19 Noroeste 37 Noroeste 0 941.1 -0.5 46
2020-03-27 15:00:00 15.6 17 Noroeste 38 Noroeste 0 941.1 -1 46
2020-03-27 14:00:00 16.9 19 Oeste 34 Oeste 0 941.4 -0.9 38
2020-03-27 13:00:00 16.5 18 Noroeste 35 Oeste 0 941.6 -0.5 42
2020-03-27 12:00:00 15.8 15 Oeste 33 Oeste 0 942.1 0.1 40
2020-03-27 11:00:00 14.4 6 Oeste 23 Oeste 0 942.3 0.9 47
2020-03-27 10:00:00 12.1 6 Noroeste 18 Noroeste 0 942.1 1.4 72
2020-03-27 09:00:00 10.7 4 Este 15 Oeste 0 942 1.7 78
2020-03-27 08:00:00 9.3 0 Calma 8 Este 0 941.4 1.2 83
2020-03-27 07:00:00 9.5 5 Sur 14 Sur 0 940.7 0.1 78
2020-03-27 06:00:00 10.4 2 Sudeste 17 Sur 0 940.3 -0.9 70
2020-03-27 05:00:00 9.9 3 Este 11 Oeste 0 940.2 -1.5 73
2020-03-27 04:00:00 11.6 6 Sudoeste 19 Sudoeste 0 940.6 -1.2 65
2020-03-27 03:00:00 12.1 9 Oeste 23 Sudoeste 0 941.2 -0.7 63
2020-03-27 02:00:00 12.3 8 Oeste 22 Sur 0 941.7 -0.3 62
2020-03-27 01:00:00 13.2 16 Sudoeste 30 Sudoeste 0 941.8 -0.2 56
2020-03-27 00:00:00 13.9 10 Sudoeste 21 Sudoeste 0 941.9 0 50
2020-03-26 23:00:00 13.6 11 Oeste 22 Oeste 0 942 0.7 50
2020-03-26 22:00:00 13.9 13 Oeste 21 Oeste 0 942 1 47
2020-03-26 21:00:00 15.1 16 Oeste 28 Noroeste 0 941.9 1.3 50
2020-03-26 20:00:00 15.5 14 Oeste 32 Oeste 0 941.3 0.5 56
2020-03-26 19:00:00 16.4 16 Oeste 37 Noroeste 0 941 -0.2 52
2020-03-26 18:00:00 17.7 17 Oeste 36 Noroeste 0 940.6 -1.2 48
2020-03-26 17:00:00 18.1 17 Oeste 37 Oeste 0 940.8 -1.8 48
2020-03-26 16:00:00 18.3 17 Oeste 35 Noroeste 0 941.2 -1.8 47
2020-03-26 15:00:00 17.9 16 Oeste 40 Oeste 0 941.8 -1.8 48
2020-03-26 14:00:00 17.3 18 Oeste 40 Oeste 0 942.6 -1 50
2020-03-26 13:00:00 16.5 17 Oeste 38 Oeste 0 943 -1.4 56
2020-03-26 12:00:00 15.4 18 Noroeste 42 Oeste 0 943.6 -0.5 57
2020-03-26 11:00:00 13.8 16 Noroeste 33 Oeste 0 943.6 -0.3 68
2020-03-26 10:00:00 11.9 15 Noroeste 35 Oeste 0 944.4 0.5 81
2020-03-26 09:00:00 11.2 21 Oeste 41 Oeste 0 944.1 0.4 85
2020-03-26 08:00:00 10.8 15 Oeste 34 Oeste 0 943.9 0 88
2020-03-26 07:00:00 11 3 Norte 18 Nordeste 0 943.9 -0.7 80
2020-03-26 06:00:00 11.8 6 Nordeste 32 Oeste 0 943.7 -1.6 73
2020-03-26 05:00:00 11.3 9 Norte 31 Oeste 0 943.9 -1.7 78
2020-03-26 04:00:00 11.5 12 Oeste 51 Oeste 0 944.6 -1.3 74
2020-03-26 03:00:00 11 26 Oeste 50 Oeste 0 945.3 -1.3 84
2020-03-26 02:00:00 11.9 19 Oeste 50 Oeste 0 945.6 -1.1 75
2020-03-26 01:00:00 11.8 22 Oeste 47 Oeste 0 945.9 -1 76
2020-03-26 00:00:00 12.1 26 Oeste 45 Oeste 0 946.6 -0.2 76
2020-03-25 23:00:00 13 23 Oeste 39 Oeste 0 946.7 0.2 71
2020-03-25 22:00:00 13.1 21 Oeste 35 Oeste 0 946.9 0.5 65
2020-03-25 21:00:00 12.9 12 Oeste 23 Oeste 0 946.8 0.3 60
2020-03-25 20:00:00 13.1 13 Sudoeste 31 Oeste 0 946.5 -0.3 58
2020-03-25 19:00:00 14.4 15 Oeste 27 Oeste 0 946.4 -0.6 57
2020-03-25 18:00:00 15.8 8 Noroeste 17 Noroeste 0 946.5 -1.1 44
2020-03-25 17:00:00 17 10 Noroeste 21 Noroeste 0 946.8 -1.3 38
2020-03-25 16:00:00 17.3 8 Oeste 23 Norte 0 947 -1.5 36
2020-03-25 15:00:00 16.8 8 Norte 27 Noroeste 0 947.6 -0.9 36
2020-03-25 14:00:00 16 13 Norte 32 Norte 0 948.1 -0.5 39
2020-03-25 13:00:00 14.9 17 Noroeste 27 Noroeste 0 948.5 0.1 47
2020-03-25 12:00:00 14 17 Noroeste 26 Noroeste 0 948.5 0.5 55
2020-03-25 11:00:00 13.7 9 Norte 17 Noroeste 0 948.6 1.1 59
2020-03-25 10:00:00 11.4 8 Norte 17 Noroeste 0 948.4 1.4 66
2020-03-25 09:00:00 10.5 11 Noroeste 19 Sur 0 948 1.1 68
2020-03-25 08:00:00 10.2 14 Sur 29 Sur 0 947.5 0.4 58
2020-03-25 07:00:00 10.1 17 Sur 27 Sur 0 947 0 58
2020-03-25 06:00:00 10.2 13 Sudeste 28 Sur 0 946.9 -0.1 61
2020-03-25 05:00:00 9.9 8 Sudeste 15 Este 0 947.1 -0.2 67
2020-03-25 04:00:00 10.1 6 Este 27 Sudeste 0 947 -0.1 70
2020-03-25 03:00:00 9.7 6 Este 11 Este 0 947 0.3 75
2020-03-25 02:00:00 9.6 5 Sudeste 7 Sur 0 947.3 0.6 78
2020-03-25 01:00:00 10.4 4 Noroeste 15 Este 0 947.1 0.9 74
2020-03-25 00:00:00 11.5 13 Sudeste 42 Sudeste 0 946.7 1.2 64
2020-03-24 23:00:00 11.8 27 Sudeste 47 Sudeste 0 946.7 2 65
2020-03-24 22:00:00 12.1 24 Sudeste 45 Sudeste 0 946.2 2.1 61
2020-03-24 21:00:00 12.3 20 Sudeste 45 Sudeste 0 945.5 1.8 61
2020-03-24 20:00:00 12.8 25 Sudeste 44 Sudeste 0 944.7 1.6 58
2020-03-24 19:00:00 13.2 25 Sudeste 53 Sudeste 0 944.1 1.2 57
2020-03-24 18:00:00 13.6 28 Sudeste 57 Sudeste 0 943.7 0.7 57
2020-03-24 17:00:00 14.1 32 Sudeste 55 Sudeste 0 943.1 0 55
2020-03-24 16:00:00 15.1 26 Sudeste 49 Sudeste 0 942.9 -0.4 52
2020-03-24 15:00:00 15.2 23 Sudeste 54 Sudeste 0 943 -0.6 52
2020-03-24 14:00:00 14.8 25 Sudeste 49 Este 0 943.1 -0.2 53
2020-03-24 13:00:00 15.3 30 Sudeste 57 Sudeste 0 943.3 0.2 53
2020-03-24 12:00:00 14.6 30 Sudeste 48 Sudeste 0 943.6 0.8 56
2020-03-24 11:00:00 13.1 28 Sudeste 50 Este 0 943.3 0.6 62
2020-03-24 10:00:00 12.3 30 Sudeste 59 Sudeste 0 943.1 0.6 64
2020-03-24 09:00:00 11.1 24 Sudeste 46 Sudeste 0 942.8 0.4 66
2020-03-24 08:00:00 10.6 18 Sudeste 39 Sudeste 0 942.7 0.3 67
2020-03-24 07:00:00 10.9 21 Sudeste 53 Sudeste 0 942.5 -0.4 68
2020-03-24 06:00:00 10.9 20 Sudeste 48 Sudeste 0 942.4 -0.5 70
2020-03-24 05:00:00 11.3 28 Sudeste 44 Sudeste 0 942.4 -1.2 66
2020-03-24 04:00:00 11.2 18 Sudeste 53 Sudeste 0 942.9 -1.6 69
2020-03-24 03:00:00 11.3 29 Sudeste 51 Sudeste 0 942.9 -2 67
2020-03-24 02:00:00 11.2 21 Sudeste 31 Sudeste 0 943.6 -1.6 68
2020-03-24 01:00:00 9.9 9 Sudeste 24 Sudeste 0 944.5 -0.8 80
2020-03-24 00:00:00 10.4 16 Sudeste 25 Sudeste 0 944.9 -0.4 76
2020-03-23 23:00:00 9.3 15 Sur 20 Sudeste 0 945.2 0.4 86
2020-03-23 22:00:00 8.7 9 Sudeste 36 Sudeste 2.8 945.3 1.1 92
2020-03-23 21:00:00 9.8 18 Sudeste 27 Sudeste 0.6 945.3 1.5 82
2020-03-23 20:00:00 10.9 10 Sudeste 40 Sudeste 0 944.8 1.5 75
2020-03-23 19:00:00 11 22 Sudeste 37 Sudeste 0.2 944.2 1.2 73
2020-03-23 18:00:00 11.3 22 Sudeste 39 Sudeste 0.2 943.8 0.2 73
2020-03-23 17:00:00 10.2 10 Sudoeste 32 Sudeste 4.2 943.3 -1.3 76
2020-03-23 16:00:00 15.3 9 Norte 23 Norte 0.2 943 -2.2 54
2020-03-23 15:00:00 15.7 9 Norte 20 Sudeste 0 943.6 -2 48
2020-03-23 14:00:00 15 6 Sudeste 19 Sudeste 0 944.6 -1.4 51
2020-03-23 13:00:00 14.4 9 Este 23 Este 0 945.2 -0.9 55
2020-03-23 12:00:00 14.6 7 Este 18 Sudeste 0 945.6 -0.1 54
2020-03-23 11:00:00 12.5 8 Este 25 Sudeste 0 946 0.6 61
2020-03-23 10:00:00 11.3 17 Sudeste 30 Sudeste 0 946.1 1.2 66
2020-03-23 09:00:00 8 2 Este 7 Este 0 945.7 0.8 90
2020-03-23 08:00:00 7.3 0 Calma 12 Sudoeste 0 945.4 0.6 87
2020-03-23 07:00:00 6.1 5 Sur 10 Sur 0 944.9 0.2 89
2020-03-23 06:00:00 6.6 5 Sur 8 Sur 0 944.9 -0.1 87
2020-03-23 05:00:00 6.6 2 Sur 5 Este 0 944.8 -0.4 91
2020-03-23 04:00:00 6.3 3 Sur 5 Sudoeste 0 944.7 -0.6 86
2020-03-23 03:00:00 6.9 5 Sudoeste 9 Sur 0 945 -0.5 86
2020-03-23 02:00:00 7.1 5 Sur 9 Sur 0 945.2 0 82
2020-03-23 01:00:00 7.6 3 Sudoeste 9 Oeste 0 945.3 0.4 85
2020-03-23 00:00:00 7.8 5 Sudoeste 14 Sur 0 945.5 0.5 83
2020-03-22 23:00:00 7.7 9 Sur 15 Sur 0 945.2 0.9 81
2020-03-22 22:00:00 7.6 8 Sur 20 Sudoeste 0 944.9 1 83
2020-03-22 21:00:00 8.3 10 Sudoeste 20 Sudoeste 0 945 1.6 86
2020-03-22 20:00:00 8 11 Sur 15 Sur 0 944.3 1.1 88
2020-03-22 19:00:00 8.3 4 Sudeste 12 Oeste 0 943.9 1.3 91
2020-03-22 18:00:00 7.7 4 Sudoeste 17 Oeste 4.8 943.4 0.7 94
2020-03-22 17:00:00 9.1 10 Sur 21 Sudeste 5.8 943.2 -0.1 80
2020-03-22 16:00:00 11.7 12 Noroeste 22 Noroeste 0 942.6 -0.8 71
2020-03-22 15:00:00 12.3 14 Noroeste 21 Noroeste 0 942.7 -1 66
2020-03-22 14:00:00 9.3 12 Oeste 23 Noroeste 0 943.3 -0.5 77
2020-03-22 13:00:00 11.1 3 Nordeste 14 Norte 0 943.4 -0.1 70
2020-03-22 12:00:00 11.1 5 Norte 12 Norte 0 943.7 0.6 72
2020-03-22 11:00:00 10.4 4 Nordeste 10 Norte 0 943.8 1 70
2020-03-22 10:00:00 8.7 4 Norte 7 Nordeste 0 943.5 0.8 84
2020-03-22 09:00:00 8.7 5 Sudeste 18 Sudeste 0 943.1 0.5 79
2020-03-22 08:00:00 7.8 10 Sur 14 Sur 0 942.8 0.4 76
2020-03-22 07:00:00 6.6 4 Sudeste 9 Sur 0 942.7 0.1 87
2020-03-22 06:00:00 6.1 4 Sur 10 Sur 0 942.6 -0.5 88
2020-03-22 05:00:00 6.2 6 Sur 10 Sur 0 942.4 -1.2 88
2020-03-22 04:00:00 6 3 Sur 7 Oeste 0 942.6 -1.4 90
2020-03-22 03:00:00 6.3 5 Oeste 7 Oeste 0 943.1 -1.1 86
2020-03-22 02:00:00 7.9 7 Sudoeste 11 Sudoeste 0 943.6 -1.1 73
2020-03-22 01:00:00 8.4 3 Sur 15 Sur 0 944 -0.6 75
2020-03-22 00:00:00 9.3 11 Sur 24 Sur 0 944.2 0.2 66
2020-03-21 23:00:00 9.1 18 Sur 30 Sur 0 944.7 0.9 67
2020-03-21 22:00:00 9.9 8 Sur 28 Sudeste 0 944.6 1.2 66
2020-03-21 21:00:00 10.2 9 Sudeste 22 Sudoeste 0 944 0.7 71
2020-03-21 20:00:00 10.3 10 Sudeste 24 Oeste 0 943.8 0.8 68
2020-03-21 19:00:00 10.3 12 Sur 30 Sudoeste 0 943.4 -0.2 70
2020-03-21 18:00:00 10.2 11 Sudoeste 30 Oeste 1 943.3 -0.8 80
2020-03-21 17:00:00 13.2 4 Norte 12 Sudeste 0 943 -2 59
2020-03-21 16:00:00 12.7 3 Nordeste 15 Nordeste 0 943.6 -2.1 58
2020-03-21 15:00:00 12.5 4 Este 17 Norte 0 944.1 -2.3 62
2020-03-21 14:00:00 12 11 Norte 17 Norte 0 945 -1.4 66
2020-03-21 13:00:00 13 8 Norte 15 Sudeste 0 945.7 -0.7 60
2020-03-21 12:00:00 11.4 4 Nordeste 10 Nordeste 0 946.4 0.4 62
2020-03-21 11:00:00 9.5 3 Sudeste 9 Norte 0 946.4 0.7 73
2020-03-21 10:00:00 9.1 5 Nordeste 24 Sudoeste 0 946.4 1 81
2020-03-21 09:00:00 8 10 Sudoeste 17 Sudoeste 0 946 1 75
2020-03-21 08:00:00 7.3 4 Sur 35 Sur 0.8 945.7 1 92
2020-03-21 07:00:00 7.8 9 Sudoeste 45 Sudoeste 2.4 945.4 1.5 83
2020-03-21 06:00:00 8.3 17 Oeste 37 Oeste 2.8 945 0.5 89
2020-03-21 05:00:00 12.3 6 Sur 28 Sur 0 944.7 0.1 66
2020-03-21 04:00:00 12.5 18 Sudeste 36 Sur 0 943.9 -1.6 64
2020-03-21 03:00:00 12.3 14 Sudeste 51 Sudeste 0 944.5 -1.6 67
2020-03-21 02:00:00 12.5 32 Sudeste 48 Sudeste 0 944.6 -1.3 65
2020-03-21 01:00:00 12.7 27 Sudeste 42 Este 0 945.5 -0.3 66
2020-03-21 00:00:00 12.8 19 Sudeste 41 Sudeste 0 946.1 0.6 66
2020-03-20 23:00:00 13.9 25 Sudeste 37 Sudeste 0 945.9 0.5 63
2020-03-20 22:00:00 14.1 9 Sur 13 Sur 0 945.8 0.7 60
2020-03-20 21:00:00 13.6 6 Sudoeste 15 Oeste 0 945.5 0.4 63
2020-03-20 20:00:00 14.4 4 Sudoeste 7 Oeste 0 945.4 0 58
2020-03-20 19:00:00 17.2 4 Nordeste 9 Norte 0 945.1 -0.8 47
2020-03-20 18:00:00 17.8 5 Norte 12 Este 0 945.1 -1.4 45
2020-03-20 17:00:00 18.4 5 Nordeste 17 Sudeste 0 945.4 -1.7 44
2020-03-20 16:00:00 18 7 Sudeste 30 Sudeste 0 945.9 -1.5 44
2020-03-20 15:00:00 17.1 18 Sudeste 33 Sudeste 0 946.5 -1.3 45
2020-03-20 14:00:00 17.7 12 Este 26 Este 0 947.1 -0.9 45
2020-03-20 13:00:00 16.8 10 Sudeste 20 Sudeste 0 947.4 -0.5 45
2020-03-20 12:00:00 15.9 5 Norte 17 Norte 0 947.8 0.2 50
2020-03-20 11:00:00 14.5 9 Noroeste 23 Sur 0 948 0.7 56
2020-03-20 10:00:00 13.1 11 Sudeste 28 Sudeste 0 947.9 0.7 53
2020-03-20 09:00:00 11.4 17 Sur 34 Sudeste 0 947.6 0.4 58
2020-03-20 08:00:00 10.8 15 Sudeste 37 Sudeste 0 947.3 -0.1 60
2020-03-20 07:00:00 10.6 12 Sudeste 30 Sudeste 0 947.2 -0.4 61
2020-03-20 06:00:00 10.4 11 Sudeste 28 Sudeste 0 947.2 -0.6 63
2020-03-20 05:00:00 10.9 9 Sudeste 28 Sur 0 947.4 -0.5 60
2020-03-20 04:00:00 11.3 15 Sudeste 30 Sur 0 947.6 -0.3 59
2020-03-20 03:00:00 11.7 20 Sur 42 Sur 0 947.8 -0.1 59
2020-03-20 02:00:00 12.2 20 Sudeste 35 Este 0 947.9 -0.1 57
2020-03-20 01:00:00 12.7 17 Sudeste 46 Sudeste 0 947.9 -0.2 55
2020-03-20 00:00:00 13.2 27 Sur 46 Sur 0 947.9 -0.2 56
2020-03-19 23:00:00 13.4 25 Sur 46 Sur 0 948 0.5 61
2020-03-19 22:00:00 13.7 28 Sur 46 Sur 0 948.1 0.7 61
2020-03-19 21:00:00 14.2 19 Sudeste 37 Sur 0 948.1 0.7 60
2020-03-19 20:00:00 15.2 21 Sur 35 Sudeste 0 947.5 -0.2 56
2020-03-19 19:00:00 16.5 15 Sudeste 28 Sudeste 0 947.4 -0.6 52
2020-03-19 18:00:00 18.2 13 Sudeste 24 Sudeste 0 947.4 -1 48
2020-03-19 17:00:00 18.8 15 Sudeste 25 Este 0 947.7 -1.7 45
2020-03-19 16:00:00 20 9 Este 19 Este 0 948 -2.3 41
2020-03-19 15:00:00 20.1 6 Este 21 Este 0 948.4 -2.6 39
2020-03-19 14:00:00 17.6 11 Sudeste 28 Sudeste 0 949.4 -2 48
2020-03-19 13:00:00 17 17 Este 29 Sudeste 0 950.3 -1.2 49
2020-03-19 12:00:00 15.5 18 Sudeste 32 Sudeste 0 951 -0.5 52
2020-03-19 11:00:00 14.7 20 Sudeste 40 Sudeste 0 951.4 0 55
2020-03-19 10:00:00 13.8 13 Sudeste 34 Este 0 951.5 0.1 59
2020-03-19 09:00:00 12.5 14 Sudeste 33 Sudeste 0 951.5 -0.1 62
2020-03-19 08:00:00 11.7 12 Sudeste 26 Sur 0 951.4 0 66
2020-03-19 07:00:00 11.5 13 Sudeste 24 Sudeste 0 951.4 0.1 66
2020-03-19 06:00:00 11.8 10 Sudeste 35 Este 0 951.6 0.1 65
2020-03-19 05:00:00 12 12 Sudeste 39 Sur 0 951.4 -0.2 63
2020-03-19 04:00:00 12.6 19 Sur 49 Sur 0 951.3 -0.1 61
2020-03-19 03:00:00 12.9 15 Sur 51 Sur 0 951.5 -0.4 60
2020-03-19 02:00:00 13.2 21 Sur 46 Sur 0 951.6 -0.7 57
2020-03-19 01:00:00 13.6 27 Sudeste 50 Sudeste 0 951.4 -0.9 56
2020-03-19 00:00:00 14.1 30 Sudeste 53 Este 0 951.9 -0.1 54
2020-03-18 23:00:00 14.6 26 Sudeste 51 Sudeste 0 952.3 0.4 52
2020-03-18 22:00:00 14.9 16 Sudeste 46 Este 0 952.3 0.8 52
2020-03-18 21:00:00 15.7 13 Sudeste 43 Sudeste 0 952 0.7 48
2020-03-18 20:00:00 16.5 14 Sudeste 39 Sudeste 0 951.9 0.6 46
2020-03-18 19:00:00 17.4 21 Sudeste 53 Sudeste 0 951.5 0 44
2020-03-18 18:00:00 18.3 22 Sudeste 43 Sudeste 0 951.3 -0.5 42
2020-03-18 17:00:00 19.2 24 Sudeste 44 Este 0 951.3 -1.2 41
2020-03-18 16:00:00 19.4 23 Sudeste 51 Sudeste 0 951.5 -1.4 39
2020-03-18 15:00:00 18.9 31 Sudeste 59 Sudeste 0 951.8 -1.8 40
2020-03-18 14:00:00 18.2 32 Sudeste 57 Sudeste 0 952.5 -1.4 43
2020-03-18 13:00:00 17.4 32 Sudeste 60 Sudeste 0 952.9 -1 44
2020-03-18 12:00:00 16.1 33 Sudeste 59 Sudeste 0 953.6 -0.1 48
2020-03-18 11:00:00 14.1 36 Sudeste 67 Este 0 953.9 0.4 56
2020-03-18 10:00:00 13.9 33 Sudeste 79 Sudeste 0 953.9 0.8 59
2020-03-18 09:00:00 13.1 39 Sudeste 66 Sudeste 0 953.7 0.4 62
2020-03-18 08:00:00 12.7 22 Sudeste 60 Sudeste 0 953.5 0.6 64
2020-03-18 07:00:00 12.5 28 Sudeste 52 Sudeste 0 953.1 0.6 66
2020-03-18 06:00:00 12.7 22 Sudeste 45 Este 0 953.3 1.2 66
2020-03-18 05:00:00 13 18 Sudeste 53 Sudeste 0 952.9 0.4 64
2020-03-18 04:00:00 13.5 22 Sudeste 74 Sudeste 0 952.5 -0.1 62
2020-03-18 03:00:00 13.8 36 Sudeste 59 Sudeste 0 952.1 -1.1 62
2020-03-18 02:00:00 14.5 34 Sudeste 64 Sudeste 0 952.5 -1 61
2020-03-18 01:00:00 14.7 25 Sudeste 44 Sudeste 0 952.6 -1.3 65
2020-03-18 00:00:00 14.5 24 Sudeste 45 Sudeste 0 953.2 -0.3 67
2020-03-17 23:00:00 14.4 19 Sudeste 38 Sudeste 0 953.5 0.6 67
2020-03-17 22:00:00 14 20 Sudeste 35 Sudeste 0 953.9 1.6 67
2020-03-17 21:00:00 14 16 Sudeste 42 Sudeste 0 953.5 1.2 65
2020-03-17 20:00:00 13.5 24 Sudeste 49 Sudeste 0 952.9 1.3 65
2020-03-17 19:00:00 13.1 27 Sudeste 49 Sudeste 0.2 952.3 0.6 68
2020-03-17 18:00:00 15.4 24 Sudeste 38 Sudeste 0 952.3 0.7 52
2020-03-17 17:00:00 16 19 Sudeste 45 Sudeste 0 951.6 -0.5 45
2020-03-17 16:00:00 16.8 25 Sudeste 43 Sudeste 0 951.7 -0.8 39
2020-03-17 15:00:00 17.6 22 Sudeste 39 Sudeste 0 951.6 -1 32
2020-03-17 14:00:00 15.5 21 Sudeste 47 Sudeste 0 952.1 -0.4 36
2020-03-17 13:00:00 15.8 19 Sudeste 40 Sudeste 0 952.5 0.3 35
2020-03-17 12:00:00 14.2 13 Este 32 Sudeste 0 952.6 1.1 42
2020-03-17 11:00:00 11.4 8 Este 23 Sudeste 0 952.5 1.4 56
2020-03-17 10:00:00 11 7 Este 34 Sur 0 952.2 1.9 55
2020-03-17 09:00:00 9.7 18 Sudeste 35 Sur 0 951.5 1.8 54
2020-03-17 08:00:00 7.5 17 Sudeste 33 Sudeste 0 951.1 2 59
2020-03-17 07:00:00 6.8 17 Sudeste 26 Sur 0 950.3 1.3 64
2020-03-17 06:00:00 5.6 12 Sur 19 Sur 0 949.7 0.5 72
2020-03-17 05:00:00 5.3 6 Sur 10 Sur 0 949.1 0.3 79
2020-03-17 04:00:00 6.2 4 Sudeste 13 Norte 0 949 0.1 78
2020-03-17 03:00:00 5.7 4 Sur 11 Norte 0 949.2 0.4 83
2020-03-17 02:00:00 5.6 4 Oeste 8 Sudoeste 0 948.8 0 81
2020-03-17 01:00:00 6.2 5 Oeste 9 Oeste 0 948.9 0.8 77
2020-03-17 00:00:00 6.7 2 Oeste 5 Sudoeste 0 948.8 1.3 72
2020-03-16 23:00:00 6.6 2 Oeste 7 Sur 0 948.8 1.7 72
2020-03-16 22:00:00 6.6 2 Norte 9 Oeste 0 948.1 1.5 74
2020-03-16 21:00:00 7.1 4 Oeste 15 Este 0 947.5 1.2 72
2020-03-16 20:00:00 7.3 8 Sudeste 19 Sudoeste 0 947.1 0.9 67
2020-03-16 19:00:00 7.3 6 Sudoeste 22 Sudoeste 0 946.6 0.3 68
2020-03-16 18:00:00 8.7 8 Oeste 22 Oeste 0 946.3 0.3 60
2020-03-16 17:00:00 9.4 13 Oeste 26 Sudoeste 0 946.2 0.1 54
2020-03-16 16:00:00 9.7 14 Oeste 30 Noroeste 0 946.3 0.1 53
2020-03-16 15:00:00 10.4 14 Oeste 40 Noroeste 0 946 -0.4 48
2020-03-16 14:00:00 10.8 22 Noroeste 39 Noroeste 0 946.1 -1 45
2020-03-16 13:00:00 10.2 16 Noroeste 36 Noroeste 0 946.2 -0.9 46
2020-03-16 12:00:00 9.3 9 Noroeste 25 Noroeste 0 946.4 -0.8 51
2020-03-16 11:00:00 8.3 15 Noroeste 33 Noroeste 0 947.1 0.2 57
2020-03-16 10:00:00 7.3 15 Noroeste 33 Oeste 0 947.1 1.1 63
2020-03-16 09:00:00 5.3 6 Noroeste 19 Oeste 0 947.2 1.6 80
2020-03-16 08:00:00 4.7 3 Oeste 18 Oeste 0 946.9 2.3 83
2020-03-16 07:00:00 4.7 13 Sudoeste 43 Oeste 0.8 946 1.7 83
2020-03-16 06:00:00 5.1 21 Oeste 49 Noroeste 1 945.6 1.1 91
2020-03-16 05:00:00 8.7 23 Oeste 37 Oeste 1.8 944.6 -0.4 92
2020-03-16 04:00:00 10.7 23 Noroeste 39 Noroeste 0 944.3 -0.9 87
2020-03-16 03:00:00 12.4 9 Oeste 31 Oeste 0.8 944.5 -1.3 89
2020-03-16 02:00:00 13.8 13 Oeste 30 Sudoeste 0 945 -1.4 78
2020-03-16 01:00:00 14.5 4 Nordeste 19 Noroeste 0 945.2 -1.3 64
2020-03-16 00:00:00 16 5 Sudoeste 19 Sur 0 945.8 -0.6 52
2020-03-15 23:00:00 16.4 7 Sudoeste 20 Sur 0 946.4 0.8 45
2020-03-15 22:00:00 14.7 6 Sudoeste 9 Sur 0 946.5 0.5 52
2020-03-15 21:00:00 14.6 8 Sudoeste 15 Sur 0 946.4 0 51
2020-03-15 20:00:00 16.3 6 Sur 15 Sur 0 945.6 -1.1 46
2020-03-15 19:00:00 17.6 8 Sur 15 Sudeste 0 946 -0.7 51
2020-03-15 18:00:00 18.7 8 Oeste 24 Oeste 0 946.4 -0.9 53
2020-03-15 17:00:00 18.3 15 Oeste 26 Noroeste 0 946.7 -1.4 58
2020-03-15 16:00:00 18.7 11 Noroeste 20 Noroeste 0 946.7 -2.2 58
2020-03-15 15:00:00 18.7 12 Noroeste 20 Norte 0 947.3 -2.2 60
2020-03-15 14:00:00 19.1 9 Norte 18 Noroeste 0 948.1 -1.9 61
2020-03-15 13:00:00 18.5 9 Norte 15 Nordeste 0 948.9 -1.1 64
2020-03-15 12:00:00 16.9 4 Norte 10 Nordeste 0 949.5 -0.4 71
2020-03-15 11:00:00 15.6 5 Norte 9 Norte 0 950 0.6 74
2020-03-15 10:00:00 14.7 4 Norte 6 Norte 0 950 0.6 81
2020-03-15 09:00:00 13.8 5 Norte 8 Norte 0 949.9 0.7 84
2020-03-15 08:00:00 12.1 3 Sur 6 Sur 0 949.4 0.2 92
2020-03-15 07:00:00 11.5 3 Sudoeste 8 Sudoeste 0 949.4 0.2 89
2020-03-15 06:00:00 11.7 2 Sudoeste 8 Sur 0 949.2 -0.6 87
2020-03-15 05:00:00 12 2 Sur 6 Sur 0 949.2 -1 87
2020-03-15 04:00:00 12.7 3 Sur 5 Sudoeste 0 949.2 -1.2 84
2020-03-15 03:00:00 13.2 3 Sudoeste 6 Sur 0 949.8 -0.9 82
2020-03-15 02:00:00 13.8 3 Sudoeste 9 Sudoeste 0 950.2 -0.6 79
2020-03-15 01:00:00 14.8 8 Sudoeste 11 Sudoeste 0 950.4 -0.3 73
2020-03-15 00:00:00 14.6 5 Sudoeste 9 Oeste 0 950.7 0.3 74
2020-03-14 23:00:00 14.4 4 Sudoeste 9 Oeste 0 950.8 0.7 73
2020-03-14 22:00:00 15.6 8 Sur 12 Oeste 0 950.7 0.8 68
2020-03-14 21:00:00 16.9 9 Sudoeste 16 Oeste 0 950.4 0.6 63
2020-03-14 20:00:00 17.1 9 Sudoeste 13 Oeste 0 950.1 0.2 62
2020-03-14 19:00:00 19 8 Oeste 13 Noroeste 0 949.9 -0.3 57
2020-03-14 18:00:00 21 6 Noroeste 12 Norte 0 949.8 -1 49
2020-03-14 17:00:00 21.2 5 Oeste 14 Noroeste 0 949.9 -1.7 50
2020-03-14 16:00:00 21.5 5 Norte 15 Noroeste 0 950.2 -2.2 51
2020-03-14 15:00:00 20.8 8 Noroeste 17 Norte 0 950.8 -2 56
2020-03-14 14:00:00 20.4 4 Norte 12 Noroeste 0 951.6 -1.5 56
2020-03-14 13:00:00 18.9 5 Nordeste 12 Nordeste 0 952.4 -0.3 58
2020-03-14 12:00:00 17.4 4 Nordeste 10 Norte 0 952.8 0.4 65
2020-03-14 11:00:00 16.3 6 Norte 16 Norte 0 953.1 1.3 64
2020-03-14 10:00:00 14.6 4 Nordeste 9 Norte 0 952.7 1.1 75
2020-03-14 09:00:00 13.3 4 Norte 8 Norte 0 952.4 1 82
2020-03-14 08:00:00 10.6 0 Calma 5 Oeste 0 951.8 0.5 89
2020-03-14 07:00:00 10.7 0 Calma 6 Sudoeste 0 951.6 0.5 88
2020-03-14 06:00:00 11.4 0 Calma 6 Sudoeste 0 951.4 0.1 83
2020-03-14 05:00:00 12.1 0 Calma 6 Sur 0 951.3 -0.2 80
2020-03-14 04:00:00 12 2 Sudoeste 8 Sudoeste 0 951.1 -0.5 77
2020-03-14 03:00:00 12.6 4 Sur 6 Sur 0 951.3 -0.2 70
2020-03-14 02:00:00 13.2 2 Sudoeste 8 Sur 0 951.5 0.3 66
2020-03-14 01:00:00 13.5 3 Sur 7 Sur 0 951.6 0.8 62
2020-03-14 00:00:00 14.3 3 Oeste 12 Oeste 0 951.5 1 53
2020-03-13 23:00:00 14.7 0 Calma 8 Oeste 0 951.2 1.3 48
2020-03-13 22:00:00 15.7 6 Sur 14 Sudoeste 0 950.8 1.3 41
2020-03-13 21:00:00 17 7 Sur 11 Sur 0 950.5 1.5 35
2020-03-13 20:00:00 18.1 6 Sur 23 Sudoeste 0 949.9 1 26
2020-03-13 19:00:00 19.3 11 Oeste 24 Noroeste 0 949.5 0.5 36
2020-03-13 18:00:00 20.4 18 Noroeste 33 Oeste 0 949 -0.2 44
2020-03-13 17:00:00 21.6 19 Noroeste 33 Noroeste 0 948.9 -1.1 40
2020-03-13 16:00:00 22.3 14 Noroeste 32 Noroeste 0 949 -1.6 45
2020-03-13 15:00:00 20.9 17 Noroeste 28 Norte 0 949.2 -1.9 48
2020-03-13 14:00:00 21.6 12 Noroeste 21 Noroeste 0 950 -1.2 46
2020-03-13 13:00:00 20 8 Norte 20 Norte 0 950.6 -0.6 51
2020-03-13 12:00:00 17.9 9 Norte 13 Noroeste 0 951.1 0.2 59
2020-03-13 11:00:00 16 4 Norte 10 Noroeste 0 951.2 0.5 62
2020-03-13 10:00:00 14.9 6 Noroeste 8 Norte 0 951.2 0.8 69
2020-03-13 09:00:00 13 6 Sudeste 12 Sudeste 0 950.9 0.7 77
2020-03-13 08:00:00 11.7 3 Sur 6 Oeste 0 950.7 0.3 81
2020-03-13 07:00:00 12 5 Oeste 9 Oeste 0 950.4 -0.1 79
2020-03-13 06:00:00 12.6 2 Sur 7 Oeste 0 950.2 -0.7 76
2020-03-13 05:00:00 13.3 4 Sudoeste 9 Oeste 0 950.4 -0.8 72
2020-03-13 04:00:00 14.5 5 Sur 11 Sudoeste 0 950.5 -0.9 71
2020-03-13 03:00:00 15.2 4 Sur 9 Sudoeste 0 950.9 -0.9 69
2020-03-13 02:00:00 15.7 5 Sudoeste 12 Sudoeste 0 951.2 -0.5 66
2020-03-13 01:00:00 16.3 6 Sur 10 Sur 0 951.4 0 63
2020-03-13 00:00:00 16.4 6 Sur 14 Oeste 0 951.8 0.7 62
2020-03-12 23:00:00 17.2 4 Sur 22 Sudoeste 0 951.7 1 57
2020-03-12 22:00:00 18.3 7 Oeste 23 Oeste 0 951.4 1.2 53
2020-03-12 21:00:00 19.4 12 Oeste 25 Oeste 0 951.1 1.1 49
2020-03-12 20:00:00 21.1 15 Oeste 25 Oeste 0 950.7 0.7 43
2020-03-12 19:00:00 23.5 10 Oeste 24 Noroeste 0 950.2 -0.3 36
2020-03-12 18:00:00 25.4 9 Noroeste 24 Noroeste 0 950 -1.2 30
2020-03-12 17:00:00 26 14 Noroeste 24 Noroeste 0 950 -2.1 27
2020-03-12 16:00:00 26.4 11 Noroeste 21 Noroeste 0 950.5 -2.5 29
2020-03-12 15:00:00 26.5 7 Norte 15 Noroeste 0 951.2 -2.1 29
2020-03-12 14:00:00 25.3 5 Noroeste 19 Noroeste 0 952.1 -1.4 30
2020-03-12 13:00:00 24.1 10 Noroeste 25 Noroeste 0 953 -0.1 32
2020-03-12 12:00:00 23.4 15 Noroeste 22 Noroeste 0 953.3 0.6 34
2020-03-12 11:00:00 21.7 4 Norte 8 Nordeste 0 953.5 1.4 41
2020-03-12 10:00:00 20.7 3 Nordeste 8 Norte 0 953.1 1 39
2020-03-12 09:00:00 21.4 4 Sudeste 24 Sur 0 952.7 0.6 36
2020-03-12 08:00:00 20.9 18 Sur 23 Sur 0 952.1 -0.3 31
2020-03-12 07:00:00 20.3 15 Sur 21 Sur 0 952.1 -0.8 33
2020-03-12 06:00:00 21 15 Sur 21 Sur 0 952.1 -1.6 30
2020-03-12 05:00:00 20.5 11 Sur 20 Sur 0 952.4 -2 32
2020-03-12 04:00:00 20.7 14 Sur 20 Sur 0 952.9 -1.8 30
2020-03-12 03:00:00 20.2 14 Sur 18 Sur 0 953.7 -1.2 34
2020-03-12 02:00:00 20.5 12 Sur 20 Sur 0 954.4 -0.5 35
2020-03-12 01:00:00 20.6 16 Sur 24 Sur 0 954.7 -0.2 35
2020-03-12 00:00:00 20.1 9 Sur 21 Sur 0 954.9 0.3 37
2020-03-11 23:00:00 19.2 7 Sudoeste 12 Oeste 0 954.9 0.7 42
2020-03-11 22:00:00 19.8 10 Sur 12 Sur 0 954.9 1 41
2020-03-11 21:00:00 19.6 3 Oeste 11 Sudoeste 0 954.6 0.7 42
2020-03-11 20:00:00 21.1 5 Sur 17 Oeste 0 954.2 0.2 39
2020-03-11 19:00:00 23.2 13 Oeste 20 Oeste 0 953.9 -0.3 34
2020-03-11 18:00:00 26 9 Oeste 17 Noroeste 0 953.9 -0.8 27
2020-03-11 17:00:00 27.6 9 Noroeste 19 Noroeste 0 954 -1.5 24
2020-03-11 16:00:00 28.3 10 Norte 16 Norte 0 954.2 -2 23
2020-03-11 15:00:00 27.8 6 Norte 13 Norte 0 954.7 -2.1 27
2020-03-11 14:00:00 26.4 6 Norte 13 Nordeste 0 955.5 -1.5 30
2020-03-11 13:00:00 24.2 4 Norte 9 Norte 0 956.2 -0.7 34
2020-03-11 12:00:00 22.4 4 Nordeste 6 Nordeste 0 956.8 0.2 39
2020-03-11 11:00:00 20.3 3 Este 7 Norte 0 957 0.6 42
2020-03-11 10:00:00 17.6 2 Nordeste 6 Nordeste 0 956.9 0.7 48
2020-03-11 09:00:00 20.2 2 Sudeste 17 Sur 0 956.6 0.3 38
2020-03-11 08:00:00 16.4 9 Sur 14 Sur 0 956.4 -0.2 43
2020-03-11 07:00:00 15 3 Nordeste 9 Sur 0 956.2 -0.7 47
2020-03-11 06:00:00 17.2 8 Sur 15 Sur 0 956.3 -0.8 43
2020-03-11 05:00:00 17 9 Sur 17 Sudeste 0 956.6 -0.8 44
2020-03-11 04:00:00 16.3 9 Sur 12 Sur 0 956.9 -0.7 45
2020-03-11 03:00:00 15.6 0 Calma 9 Sur 0 957.1 -0.6 46
2020-03-11 02:00:00 15.5 3 Sudoeste 10 Sudoeste 0 957.4 -0.8 47
2020-03-11 01:00:00 18.1 5 Sur 15 Sur 0 957.6 -0.4 39
2020-03-11 00:00:00 18.5 12 Sur 15 Sur 0 957.7 -0.4 37